createdAt,value
2022-12-16T00:00:09.188Z,3.00
2022-12-16T00:02:36.531Z,3.00
2022-12-16T00:05:05.018Z,3.00
2022-12-16T00:07:31.945Z,3.00
2022-12-16T00:09:58.903Z,3.10
2022-12-16T00:12:26.001Z,3.10
2022-12-16T00:14:52.882Z,3.10
2022-12-16T00:17:21.671Z,3.20
2022-12-16T00:19:48.558Z,3.10
2022-12-16T00:22:15.402Z,3.20
2022-12-16T00:24:42.257Z,3.20
2022-12-16T00:27:09.146Z,3.20
2022-12-16T00:29:36.060Z,3.20
2022-12-16T00:32:03.110Z,3.20
2022-12-16T00:34:30.044Z,3.20
2022-12-16T00:36:56.904Z,3.20
2022-12-16T00:39:23.801Z,3.20
2022-12-16T00:41:51.099Z,3.20
2022-12-16T00:44:18.906Z,3.30
2022-12-16T00:46:45.795Z,3.30
2022-12-16T00:49:12.731Z,3.30
2022-12-16T00:51:39.629Z,3.30
2022-12-16T00:54:06.722Z,3.20
2022-12-16T00:56:33.749Z,3.20
2022-12-16T00:59:00.606Z,3.20
2022-12-16T01:01:27.668Z,3.20
2022-12-16T01:03:57.732Z,3.30
2022-12-16T01:06:24.857Z,3.30
2022-12-16T01:08:51.894Z,3.30
2022-12-16T01:11:20.112Z,3.30
2022-12-16T01:13:50.358Z,3.30
2022-12-16T01:16:19.135Z,3.30
2022-12-16T01:18:46.278Z,3.30
2022-12-16T01:21:15.437Z,3.20
2022-12-16T01:23:42.832Z,3.20
2022-12-16T01:26:16.616Z,3.20
2022-12-16T01:28:43.571Z,3.20
2022-12-16T01:31:11.037Z,3.20
2022-12-16T01:33:37.990Z,3.20
2022-12-16T01:36:07.531Z,3.30
2022-12-16T01:38:35.451Z,3.30
2022-12-16T01:41:04.005Z,3.30
2022-12-16T01:43:37.819Z,3.30
2022-12-16T01:46:13.535Z,3.30
2022-12-16T01:49:01.109Z,3.30
2022-12-16T01:51:40.071Z,3.40
2022-12-16T01:54:10.575Z,3.30
2022-12-16T01:56:43.849Z,3.40
2022-12-16T01:59:14.383Z,3.40
2022-12-16T02:01:42.061Z,3.40
2022-12-16T02:04:09.125Z,3.40
2022-12-16T02:06:36.029Z,3.40
2022-12-16T02:09:10.552Z,3.40
2022-12-16T02:12:01.048Z,3.40
2022-12-16T02:14:58.504Z,3.40
2022-12-16T02:17:54.124Z,3.40
2022-12-16T02:20:51.944Z,3.40
2022-12-16T02:23:37.473Z,3.40
2022-12-16T02:26:10.341Z,3.40
2022-12-16T02:29:08.316Z,3.50
2022-12-16T02:31:55.072Z,3.50
2022-12-16T02:34:40.639Z,3.50
2022-12-16T02:37:07.484Z,3.50
2022-12-16T02:40:04.416Z,3.50
2022-12-16T02:42:35.974Z,3.60
2022-12-16T02:45:20.074Z,3.60
2022-12-16T02:47:47.121Z,3.60
2022-12-16T02:50:39.643Z,3.60
2022-12-16T02:53:09.204Z,3.70
2022-12-16T02:55:54.251Z,3.70
2022-12-16T02:58:27.967Z,3.70
2022-12-16T03:01:21.587Z,3.70
2022-12-16T03:03:57.723Z,3.80
2022-12-16T03:06:26.920Z,3.80
2022-12-16T03:08:58.685Z,3.90
2022-12-16T03:11:29.537Z,3.90
2022-12-16T03:13:57.842Z,3.80
2022-12-16T03:16:30.195Z,3.80
2022-12-16T03:19:04.063Z,3.90
2022-12-16T03:21:38.231Z,3.90
2022-12-16T03:24:10.896Z,3.80
2022-12-16T03:26:44.815Z,3.80
2022-12-16T03:29:35.832Z,3.70
2022-12-16T03:32:09.948Z,3.60
2022-12-16T03:34:45.535Z,3.60
2022-12-16T03:37:13.920Z,3.60
2022-12-16T03:39:53.247Z,3.60
2022-12-16T03:42:20.125Z,3.60
2022-12-16T03:44:47.990Z,3.70
2022-12-16T03:47:21.449Z,3.60
2022-12-16T03:49:50.662Z,3.70
2022-12-16T03:52:17.565Z,3.70
2022-12-16T03:54:44.450Z,3.80
2022-12-16T03:57:15.460Z,3.80
2022-12-16T03:59:42.998Z,3.80
2022-12-16T04:02:10.179Z,3.80
2022-12-16T04:04:37.255Z,3.80
2022-12-16T04:07:22.268Z,3.80
2022-12-16T04:09:50.520Z,3.90
2022-12-16T04:12:36.061Z,3.90
2022-12-16T04:15:21.964Z,3.90
2022-12-16T04:18:07.555Z,4.00
2022-12-16T04:20:56.053Z,4.00
2022-12-16T04:23:44.696Z,4.00
2022-12-16T04:26:11.823Z,4.00
2022-12-16T04:28:38.694Z,4.00
2022-12-16T04:31:05.788Z,4.10
2022-12-16T04:33:51.606Z,4.20
2022-12-16T04:36:37.049Z,4.30
2022-12-16T04:39:23.307Z,4.30
2022-12-16T04:42:14.714Z,4.40
2022-12-16T04:45:00.576Z,4.40
2022-12-16T04:47:46.155Z,4.30
2022-12-16T04:50:31.774Z,4.30
2022-12-16T04:53:17.374Z,4.40
2022-12-16T04:56:04.652Z,4.40
2022-12-16T04:58:50.540Z,4.30
2022-12-16T05:01:36.315Z,4.30
2022-12-16T05:04:41.766Z,4.30
2022-12-16T05:07:27.199Z,4.40
2022-12-16T05:10:12.759Z,4.30
2022-12-16T05:12:58.284Z,4.30
2022-12-16T05:15:43.851Z,4.40
2022-12-16T05:18:30.937Z,4.30
2022-12-16T05:21:21.049Z,4.30
2022-12-16T05:24:07.176Z,4.30
2022-12-16T05:26:53.128Z,4.30
2022-12-16T05:29:38.771Z,4.30
2022-12-16T05:32:24.505Z,4.40
2022-12-16T05:35:09.953Z,4.50
2022-12-16T05:37:55.571Z,4.50
2022-12-16T05:40:41.084Z,4.60
2022-12-16T05:43:26.501Z,4.70
2022-12-16T05:46:12.041Z,4.70
2022-12-16T05:48:57.677Z,4.70
2022-12-16T05:51:43.312Z,4.80
2022-12-16T05:54:28.947Z,4.80
2022-12-16T05:57:14.307Z,4.90
2022-12-16T06:00:00.097Z,4.90
2022-12-16T06:02:45.587Z,5.00
2022-12-16T06:05:31.137Z,4.90
2022-12-16T06:08:16.624Z,4.90
2022-12-16T06:11:02.055Z,5.00
2022-12-16T06:13:47.576Z,5.00
2022-12-16T06:16:33.137Z,5.00
2022-12-16T06:19:18.732Z,5.00
2022-12-16T06:22:04.257Z,5.10
2022-12-16T06:24:49.924Z,5.00
2022-12-16T06:27:35.543Z,5.00
2022-12-16T06:30:21.179Z,5.00
2022-12-16T06:33:06.841Z,5.10
2022-12-16T06:35:52.135Z,5.10
2022-12-16T06:38:37.797Z,5.00
2022-12-16T06:41:23.398Z,5.10
2022-12-16T06:44:08.603Z,5.10
2022-12-16T06:46:54.167Z,5.00
2022-12-16T06:49:39.672Z,5.00
2022-12-16T06:52:25.130Z,5.00
2022-12-16T06:55:10.596Z,5.10
2022-12-16T06:57:56.113Z,5.10
2022-12-16T07:00:41.825Z,5.10
2022-12-16T07:03:30.364Z,5.10
2022-12-16T07:06:18.051Z,5.10
2022-12-16T07:09:03.532Z,5.20
2022-12-16T07:11:49.176Z,5.20
2022-12-16T07:14:34.427Z,5.20
2022-12-16T07:17:20.116Z,5.10
2022-12-16T07:20:05.754Z,5.10
2022-12-16T07:23:01.016Z,5.10
2022-12-16T07:25:49.611Z,5.10
2022-12-16T07:28:35.367Z,5.20
2022-12-16T07:31:20.981Z,5.20
2022-12-16T07:34:06.658Z,5.30
2022-12-16T07:36:56.721Z,5.30
2022-12-16T07:39:42.211Z,5.30
2022-12-16T07:42:27.648Z,5.30
2022-12-16T07:45:13.195Z,5.30
2022-12-16T07:48:06.790Z,5.30
2022-12-16T07:50:52.217Z,5.30
2022-12-16T07:53:39.183Z,5.40
2022-12-16T07:56:25.627Z,5.30
2022-12-16T07:59:11.140Z,5.30
2022-12-16T08:01:56.664Z,5.40
2022-12-16T08:04:42.201Z,5.40
2022-12-16T08:07:27.522Z,5.40
2022-12-16T08:10:13.214Z,5.40
2022-12-16T08:12:58.843Z,5.50
2022-12-16T08:15:44.385Z,5.50
2022-12-16T08:18:29.943Z,5.70
2022-12-16T08:21:15.179Z,5.80
2022-12-16T08:24:00.847Z,5.90
2022-12-16T08:26:46.495Z,5.90
2022-12-16T08:29:47.389Z,5.90
2022-12-16T08:32:33.905Z,5.90
2022-12-16T08:35:19.758Z,5.90
2022-12-16T08:38:10.549Z,5.90
2022-12-16T08:41:01.252Z,5.90
2022-12-16T08:43:49.278Z,5.90
2022-12-16T08:46:34.839Z,5.90
2022-12-16T08:49:20.579Z,6.00
2022-12-16T08:52:16.937Z,5.90
2022-12-16T08:55:02.504Z,6.00
2022-12-16T08:57:48.054Z,6.10
2022-12-16T09:00:33.984Z,6.20
2022-12-16T09:03:19.818Z,6.30
2022-12-16T09:06:25.544Z,6.40
2022-12-16T09:09:10.710Z,6.40
2022-12-16T09:11:55.928Z,6.50
2022-12-16T09:14:41.308Z,6.60
2022-12-16T09:17:26.798Z,6.60
2022-12-16T09:20:12.373Z,6.50
2022-12-16T09:22:57.733Z,6.60
2022-12-16T09:25:43.481Z,6.60
2022-12-16T09:28:29.013Z,6.70
2022-12-16T09:31:14.819Z,6.70
2022-12-16T09:34:00.404Z,6.70
2022-12-16T09:36:45.745Z,6.80
2022-12-16T09:39:31.476Z,6.70
2022-12-16T09:42:33.044Z,6.70
2022-12-16T09:45:53.892Z,6.70
2022-12-16T09:48:45.694Z,6.70
2022-12-16T09:51:34.268Z,6.70
2022-12-16T09:54:22.628Z,6.70
2022-12-16T09:57:08.620Z,6.70
2022-12-16T09:59:59.489Z,6.70
2022-12-16T10:02:45.157Z,6.80
2022-12-16T10:05:32.976Z,6.80
2022-12-16T10:08:34.186Z,6.80
2022-12-16T10:11:53.638Z,6.80
2022-12-16T10:14:50.406Z,6.80
2022-12-16T10:17:43.209Z,6.80
2022-12-16T10:20:40.545Z,6.70
2022-12-16T10:23:55.228Z,6.70
2022-12-16T10:27:12.718Z,6.70
2022-12-16T10:30:01.895Z,6.70
2022-12-16T10:33:04.702Z,6.70
2022-12-16T10:36:03.348Z,6.80
2022-12-16T10:39:03.142Z,6.80
2022-12-16T10:41:53.634Z,6.80
2022-12-16T10:44:57.993Z,6.80
2022-12-16T10:47:43.598Z,6.80
2022-12-16T10:50:32.513Z,6.90
2022-12-16T10:53:21.513Z,6.90
2022-12-16T10:56:44.558Z,6.90
2022-12-16T10:59:34.961Z,6.90
2022-12-16T11:02:23.834Z,6.80
2022-12-16T11:05:09.586Z,6.80
2022-12-16T11:08:04.077Z,6.70
2022-12-16T11:10:56.703Z,6.80
2022-12-16T11:13:55.856Z,6.70
2022-12-16T11:16:45.651Z,6.70
2022-12-16T11:19:44.213Z,6.70
2022-12-16T11:22:38.843Z,6.70
2022-12-16T11:25:36.182Z,6.70
2022-12-16T11:28:33.114Z,6.70
2022-12-16T11:31:26.213Z,6.70
2022-12-16T11:34:13.626Z,6.70
2022-12-16T11:37:00.797Z,6.70
2022-12-16T11:39:48.968Z,6.70
2022-12-16T11:42:44.064Z,6.70
2022-12-16T11:45:37.703Z,6.70
2022-12-16T11:48:55.947Z,6.70
2022-12-16T11:51:42.002Z,6.70
2022-12-16T11:54:35.635Z,6.60
2022-12-16T11:57:24.557Z,6.50
2022-12-16T12:00:19.537Z,6.50
2022-12-16T12:03:28.323Z,6.50
2022-12-16T12:06:24.638Z,6.50
2022-12-16T12:09:14.743Z,6.50
2022-12-16T12:12:18.574Z,6.40
2022-12-16T12:15:20.277Z,6.40
2022-12-16T12:18:11.599Z,6.40
2022-12-16T12:21:41.133Z,6.40
2022-12-16T12:24:47.845Z,6.40
2022-12-16T12:27:47.036Z,6.40
2022-12-16T12:30:36.589Z,6.40
2022-12-16T12:33:43.544Z,6.30
2022-12-16T12:36:41.225Z,6.30
2022-12-16T12:39:42.246Z,6.20
2022-12-16T12:42:30.314Z,6.30
2022-12-16T12:45:39.786Z,6.30
2022-12-16T12:48:39.709Z,6.30
2022-12-16T12:51:40.704Z,6.40
2022-12-16T12:54:58.292Z,6.40
2022-12-16T12:57:47.525Z,6.50
2022-12-16T13:00:42.698Z,6.60
2022-12-16T13:03:34.469Z,6.60
2022-12-16T13:06:20.892Z,6.60
2022-12-16T13:09:09.653Z,6.70
2022-12-16T13:11:56.220Z,6.70
2022-12-16T13:14:50.552Z,6.70
2022-12-16T13:17:41.306Z,6.80
2022-12-16T13:20:51.902Z,6.80
2022-12-16T13:23:50.785Z,6.80
2022-12-16T13:26:42.145Z,6.90
2022-12-16T13:29:46.976Z,6.90
2022-12-16T13:32:35.369Z,6.90
2022-12-16T13:35:29.712Z,6.90
2022-12-16T13:38:38.438Z,6.80
2022-12-16T13:41:51.205Z,6.70
2022-12-16T13:45:01.468Z,6.70
2022-12-16T13:47:58.972Z,6.70
2022-12-16T13:51:05.697Z,6.70
2022-12-16T13:53:58.478Z,6.80
2022-12-16T13:57:01.127Z,6.80
2022-12-16T13:59:50.407Z,6.80
2022-12-16T14:02:49.332Z,6.80
2022-12-16T14:06:06.561Z,6.80
2022-12-16T14:08:56.222Z,6.70
2022-12-16T14:12:11.248Z,6.70
2022-12-16T14:15:16.175Z,6.70
2022-12-16T14:18:14.473Z,6.70
2022-12-16T14:21:21.488Z,6.70
2022-12-16T14:24:39.756Z,6.70
2022-12-16T14:27:32.995Z,6.60
2022-12-16T14:30:18.959Z,6.60
2022-12-16T14:33:04.748Z,6.60
2022-12-16T14:35:54.815Z,6.60
2022-12-16T14:38:49.608Z,6.60
2022-12-16T14:41:41.703Z,6.50
2022-12-16T14:44:53.527Z,6.50
2022-12-16T14:47:40.579Z,6.50
2022-12-16T14:50:40.044Z,6.50
2022-12-16T14:53:49.650Z,6.50
2022-12-16T14:56:37.804Z,6.40
2022-12-16T14:59:41.270Z,6.40
2022-12-16T15:02:45.441Z,6.40
2022-12-16T15:05:32.264Z,6.40
2022-12-16T15:08:18.830Z,6.40
2022-12-16T15:11:04.424Z,6.40
2022-12-16T15:13:52.290Z,6.30
2022-12-16T15:16:49.426Z,6.40
2022-12-16T15:19:40.580Z,6.40
2022-12-16T15:22:33.456Z,6.40
2022-12-16T15:25:19.575Z,6.30
2022-12-16T15:28:13.805Z,6.30
2022-12-16T15:31:03.378Z,6.30
2022-12-16T15:33:58.113Z,6.30
2022-12-16T15:36:45.288Z,6.30
2022-12-16T15:39:38.912Z,6.30
2022-12-16T15:42:36.050Z,6.30
2022-12-16T15:45:21.707Z,6.30
2022-12-16T15:48:09.606Z,6.30
2022-12-16T15:51:11.176Z,6.30
2022-12-16T15:53:57.828Z,6.40
2022-12-16T15:57:03.853Z,6.30
2022-12-16T15:59:51.398Z,6.30
2022-12-16T16:02:39.707Z,6.30
2022-12-16T16:05:39.836Z,6.20
2022-12-16T16:08:33.042Z,6.20
2022-12-16T16:11:18.363Z,6.20
2022-12-16T16:14:09.333Z,6.20
2022-12-16T16:16:57.957Z,6.10
2022-12-16T16:19:45.553Z,6.10
2022-12-16T16:22:33.043Z,6.10
2022-12-16T16:25:18.800Z,6.10
2022-12-16T16:28:04.333Z,6.10
2022-12-16T16:30:50.081Z,6.10
2022-12-16T16:33:36.112Z,6.00
2022-12-16T16:36:35.081Z,6.00
2022-12-16T16:39:20.638Z,6.00
2022-12-16T16:42:06.234Z,6.00
2022-12-16T16:44:51.567Z,5.90
2022-12-16T16:47:37.382Z,5.90
2022-12-16T16:50:23.299Z,5.90
2022-12-16T16:53:08.925Z,5.90
2022-12-16T16:55:54.397Z,5.90
2022-12-16T16:58:46.739Z,5.80
2022-12-16T17:01:34.586Z,5.80
2022-12-16T17:04:20.595Z,5.70
2022-12-16T17:07:06.090Z,5.70
2022-12-16T17:09:51.519Z,5.70
2022-12-16T17:12:42.897Z,5.70
2022-12-16T17:15:43.330Z,5.70
2022-12-16T17:18:29.394Z,5.70
2022-12-16T17:21:15.057Z,5.60
2022-12-16T17:24:00.671Z,5.60
2022-12-16T17:26:46.180Z,5.60
2022-12-16T17:29:43.096Z,5.50
2022-12-16T17:32:29.228Z,5.50
2022-12-16T17:35:15.336Z,5.50
2022-12-16T17:38:01.647Z,5.50
2022-12-16T17:40:47.436Z,5.50
2022-12-16T17:43:33.642Z,5.50
2022-12-16T17:46:25.731Z,5.40
2022-12-16T17:49:16.371Z,5.40
2022-12-16T17:52:03.033Z,5.40
2022-12-16T17:54:48.694Z,5.40
2022-12-16T17:57:34.246Z,5.40
2022-12-16T18:00:19.984Z,5.40
2022-12-16T18:03:05.727Z,5.40
2022-12-16T18:05:51.299Z,5.40
2022-12-16T18:08:37.078Z,5.40
2022-12-16T18:11:22.698Z,5.30
2022-12-16T18:14:08.493Z,5.30
2022-12-16T18:16:53.879Z,5.30
2022-12-16T18:19:39.320Z,5.30
2022-12-16T18:22:24.989Z,5.30
2022-12-16T18:25:10.724Z,5.40
2022-12-16T18:27:56.102Z,5.40
2022-12-16T18:30:41.675Z,5.40
2022-12-16T18:33:28.249Z,5.40
2022-12-16T18:36:14.338Z,5.40
2022-12-16T18:38:59.834Z,5.40
2022-12-16T18:41:47.992Z,5.40
2022-12-16T18:44:33.799Z,5.40
2022-12-16T18:47:19.494Z,5.40
2022-12-16T18:50:05.182Z,5.40
2022-12-16T18:52:51.240Z,5.30
2022-12-16T18:55:38.011Z,5.30
2022-12-16T19:01:30.879Z,5.30
2022-12-16T19:04:17.674Z,5.30
2022-12-16T19:07:03.467Z,5.30
2022-12-16T19:09:49.388Z,5.30
2022-12-16T19:12:35.250Z,5.20
2022-12-16T19:15:20.711Z,5.20
2022-12-16T19:18:06.358Z,5.30
2022-12-16T19:20:52.300Z,5.20
2022-12-16T19:23:39.147Z,5.30
2022-12-16T19:26:25.003Z,5.20
2022-12-16T19:29:27.522Z,5.20
2022-12-16T19:32:13.006Z,5.20
2022-12-16T19:34:58.904Z,5.10
2022-12-16T19:37:45.063Z,5.10
2022-12-16T19:40:30.954Z,5.10
2022-12-16T19:43:16.506Z,5.10
2022-12-16T19:46:02.073Z,5.10
2022-12-16T19:48:47.573Z,5.10
2022-12-16T19:51:33.249Z,5.00
2022-12-16T19:54:18.741Z,5.00
2022-12-16T19:57:04.311Z,5.00
2022-12-16T19:59:50.243Z,5.00
2022-12-16T20:02:35.767Z,5.00
2022-12-16T20:05:35.037Z,5.00
2022-12-16T20:08:22.150Z,5.00
2022-12-16T20:11:27.451Z,5.00
2022-12-16T20:14:14.758Z,5.00
2022-12-16T20:17:01.266Z,5.00
2022-12-16T20:19:47.131Z,5.00
2022-12-16T20:22:33.467Z,4.90
2022-12-16T20:25:18.961Z,5.00
2022-12-16T20:28:04.995Z,4.90
2022-12-16T20:30:50.655Z,4.90
2022-12-16T20:33:37.452Z,4.90
2022-12-16T20:36:23.614Z,4.80
2022-12-16T20:39:09.354Z,4.80
2022-12-16T20:41:56.015Z,4.80
2022-12-16T20:44:41.779Z,4.80
2022-12-16T20:47:27.717Z,4.70
2022-12-16T20:50:12.945Z,4.70
2022-12-16T20:52:59.199Z,4.70
2022-12-16T20:55:45.243Z,4.70
2022-12-16T20:58:36.110Z,4.80
2022-12-16T21:01:21.804Z,4.70
2022-12-16T21:04:07.564Z,4.70
2022-12-16T21:06:53.122Z,4.70
2022-12-16T21:09:41.785Z,4.70
2022-12-16T21:12:27.446Z,4.70
2022-12-16T21:15:12.939Z,4.70
2022-12-16T21:17:58.783Z,4.60
2022-12-16T21:20:44.064Z,4.60
2022-12-16T21:23:29.971Z,4.60
2022-12-16T21:26:18.440Z,4.60
2022-12-16T21:29:04.018Z,4.60
2022-12-16T21:31:49.677Z,4.60
2022-12-16T21:34:35.412Z,4.60
2022-12-16T21:37:21.118Z,4.60
2022-12-16T21:40:06.876Z,4.50
2022-12-16T21:42:56.223Z,4.50
2022-12-16T21:45:42.155Z,4.50
2022-12-16T21:48:30.194Z,4.50
2022-12-16T21:51:15.830Z,4.50
2022-12-16T21:54:06.419Z,4.40
2022-12-16T21:56:53.637Z,4.40
2022-12-16T21:59:42.406Z,4.40
2022-12-16T22:02:32.592Z,4.40
2022-12-16T22:05:18.286Z,4.40
2022-12-16T22:08:04.429Z,4.40
2022-12-16T22:10:50.012Z,4.40
2022-12-16T22:13:35.957Z,4.30
2022-12-16T22:16:21.792Z,4.30
2022-12-16T22:19:07.395Z,4.40
2022-12-16T22:21:52.682Z,4.30
2022-12-16T22:24:39.020Z,4.30
2022-12-16T22:27:24.650Z,4.20
2022-12-16T22:30:10.440Z,4.30
2022-12-16T22:36:01.197Z,4.20
2022-12-16T22:38:51.922Z,4.10
2022-12-16T22:41:37.578Z,4.10
2022-12-16T22:44:23.021Z,4.10
2022-12-16T22:47:08.728Z,4.10
2022-12-16T22:49:54.858Z,4.10
2022-12-16T22:52:41.474Z,4.10
2022-12-16T22:55:26.847Z,4.10
2022-12-16T22:58:26.199Z,4.00
2022-12-16T23:01:11.692Z,4.00
2022-12-16T23:03:57.367Z,3.90
2022-12-16T23:06:43.333Z,3.80
2022-12-16T23:09:29.421Z,3.80
2022-12-16T23:12:15.028Z,3.80
2022-12-16T23:15:00.587Z,3.80
2022-12-16T23:17:46.236Z,3.80
2022-12-16T23:20:31.692Z,3.80
2022-12-16T23:23:16.910Z,3.80
2022-12-16T23:26:02.557Z,3.80
2022-12-16T23:28:48.180Z,3.80
2022-12-16T23:31:33.849Z,3.80
2022-12-16T23:34:19.455Z,3.80
2022-12-16T23:37:04.697Z,3.80
2022-12-16T23:39:50.397Z,3.70
2022-12-16T23:42:35.869Z,3.70
2022-12-16T23:45:21.426Z,3.70
2022-12-16T23:48:06.700Z,3.70
2022-12-16T23:50:52.116Z,3.70
2022-12-16T23:53:38.076Z,3.60
2022-12-16T23:56:23.923Z,3.60
2022-12-16T23:59:09.376Z,3.50
